^^
Meteo Knjazevac Station Historical Data
Daily Summary for February 26, 2021 Units:  Metric    English   Both
Daily Weekly Monthly Yearly Custom
  High: Low: Average:
Temperature: 3.4 °C 1.7 °C 2.3 °C
Dew Point: 3.3 °C 1.6 °C 2.2 °C
Humidity: 99% 98% 99%
Wind Speed: 11.3km/h 0km/h 3.5km/h
Wind Gust: 20.9km/h - -
Wind- - ENE
Pressure: 1017.8 hPa 1002.6 hPa -
Precipitation: 1.78 mm    
Historical Graphs
 
 
Tabular Data for February 26, 2021
Time Temperature Dew Point Pressure Wind Wind Speed Wind Gust Humidity Rainfall Rate (Hourly) solar Conditions
00:00 3.4 °C 3.3 °C 1017.8 hPa NNE 3.2 km/h 6.4 km/h 99% 0 mm 0 W/m2
00:10 3.4 °C 3.3 °C 1017.8 hPa NNE 3.2 km/h 4.8 km/h 99% 0 mm 0 W/m2
00:20 3.3 °C 3.2 °C 1017.5 hPa Calm   3.2 km/h 99% 0 mm 0 W/m2
00:30 3.3 °C 3.1 °C 1017.5 hPa Calm   4.8 km/h 99% 0 mm 0 W/m2
00:40 3.2 °C 3.1 °C 1017.5 hPa WNW 1.6 km/h 4.8 km/h 99% 0 mm 0 W/m2
00:50 2.9 °C 2.7 °C 1017.2 hPa West 4.8 km/h 11.3 km/h 98% 0 mm 0 W/m2
01:00 2.9 °C 2.8 °C 1017.2 hPa Calm   8 km/h 99% 0 mm 0 W/m2
01:10 2.9 °C 2.8 °C 1017.2 hPa Calm   6.4 km/h 99% 0 mm 0 W/m2
01:20 3 °C 2.8 °C 1017.2 hPa North 1.6 km/h 3.2 km/h 99% 0 mm 0 W/m2
01:30 2.8 °C 2.7 °C 1017.2 hPa Calm   3.2 km/h 99% 0 mm 0 W/m2
01:40 2.9 °C 2.8 °C 1017.2 hPa WNW 1.6 km/h 4.8 km/h 99% 0 mm 0 W/m2
01:50 2.9 °C 2.8 °C 1017.2 hPa North 1.6 km/h 6.4 km/h 99% 0 mm 0 W/m2
02:00 3 °C 2.8 °C 1016.8 hPa Calm   4.8 km/h 99% 0 mm 0 W/m2
02:10 3.1 °C 2.9 °C 1016.5 hPa Calm   4.8 km/h 99% 0 mm 0 W/m2
02:20 3 °C 2.8 °C 1016.5 hPa Calm   3.2 km/h 99% 0 mm 0 W/m2
02:30 3 °C 2.8 °C 1016.1 hPa Calm   3.2 km/h 99% 0 mm 0 W/m2
02:40 3 °C 2.8 °C 1015.8 hPa NNE 1.6 km/h 4.8 km/h 99% 0 mm 0 W/m2
02:50 3 °C 2.8 °C 1015.8 hPa NNE 3.2 km/h 4.8 km/h 99% 0 mm 0 W/m2
03:00 3 °C 2.8 °C 1015.8 hPa NE 1.6 km/h 3.2 km/h 99% 0 mm 0 W/m2
03:10 2.9 °C 2.8 °C 1015.8 hPa Calm   3.2 km/h 99% 0 mm 0 W/m2
03:20 2.9 °C 2.8 °C 1015.5 hPa North 3.2 km/h 6.4 km/h 99% 0 mm 0 W/m2
03:30 2.8 °C 2.7 °C 1015.5 hPa NNE 3.2 km/h 6.4 km/h 99% 0 mm 0 W/m2
03:40 2.7 °C 2.6 °C 1015.5 hPa North 1.6 km/h 6.4 km/h 99% 0 mm 0 W/m2
03:50 2.6 °C 2.4 °C 1015.5 hPa Calm   4.8 km/h 99% 0 mm 0 W/m2
04:00 2.6 °C 2.4 °C 1015.1 hPa NNE 1.6 km/h 6.4 km/h 99% 0 mm 0 W/m2
04:10 2.5 °C 2.3 °C 1014.8 hPa NNE 3.2 km/h 8 km/h 99% 0 mm 0 W/m2
04:20 2.5 °C 2.3 °C 1014.8 hPa North 1.6 km/h 6.4 km/h 99% 0 mm 0 W/m2
04:30 2.4 °C 2.3 °C 1014.8 hPa NE 3.2 km/h 6.4 km/h 99% 0 mm 0 W/m2
04:40 2.3 °C 2.2 °C 1014.8 hPa NNE 3.2 km/h 6.4 km/h 99% 0 mm 0 W/m2
04:50 2.3 °C 2.2 °C 1014.4 hPa NNE 1.6 km/h 8 km/h 99% 0 mm 0 W/m2
05:00 2.3 °C 2.2 °C 1014.4 hPa NNE 3.2 km/h 8 km/h 99% 0 mm 0 W/m2
05:10 2.3 °C 2.2 °C 1014.1 hPa NNE 3.2 km/h 9.7 km/h 99% 0 mm 0 W/m2
05:20 2.3 °C 2.1 °C 1014.1 hPa NNE 4.8 km/h 9.7 km/h 99% 0 mm 0 W/m2
05:30 2.2 °C 2.1 °C 1014.1 hPa Calm   8 km/h 99% 0 mm 0 W/m2
05:40 2.2 °C 2.1 °C 1013.8 hPa NNE 1.6 km/h 6.4 km/h 99% 0 mm 0 W/m2
05:50 2.2 °C 2.1 °C 1013.4 hPa NNE 4.8 km/h 11.3 km/h 99% 0 mm 0 W/m2
06:00 2.2 °C 2.1 °C 1013.4 hPa NNE 4.8 km/h 11.3 km/h 99% 0 mm 0 W/m2
06:10 2.2 °C 2 °C 1013.4 hPa Calm   3.2 km/h 99% 0 mm 0 W/m2
06:20 2.2 °C 2.1 °C 1013.4 hPa Calm   4.8 km/h 99% 0 mm 0 W/m2
06:30 2.2 °C 2.1 °C 1013.4 hPa North 3.2 km/h 8 km/h 99% 0 mm 0 W/m2
06:40 2.2 °C 2.1 °C 1013.4 hPa NNE 4.8 km/h 9.7 km/h 99% 0 mm 1 W/m2
06:50 2.2 °C 2 °C 1013.1 hPa North 1.6 km/h 9.7 km/h 99% 0 mm 2 W/m2
07:00 2.1 °C 1.9 °C 1012.8 hPa North 4.8 km/h 11.3 km/h 99% 0 mm 6 W/m2
07:10 2.1 °C 1.9 °C 1012.8 hPa North 3.2 km/h 12.9 km/h 99% 0 mm 9 W/m2
07:20 2.2 °C 2.1 °C 1012.8 hPa Calm   11.3 km/h 99% 0 mm 10 W/m2
07:30 2.2 °C 2.1 °C 1012.4 hPa NNW 1.6 km/h 8 km/h 99% 0 mm 15 W/m2
07:40 2.2 °C 2.1 °C 1012.4 hPa NE 1.6 km/h 11.3 km/h 99% 0 mm 16 W/m2
07:50 2.2 °C 2.1 °C 1012.1 hPa North 4.8 km/h 14.5 km/h 99% 0 mm 36 W/m2
08:00 2.2 °C 2.1 °C 1012.1 hPa West 3.2 km/h 11.3 km/h 99% 0 mm 23 W/m2
08:10 2.3 °C 2.2 °C 1012.4 hPa Calm   9.7 km/h 99% 0 mm 27 W/m2
08:20 2.4 °C 2.3 °C 1012.1 hPa Calm   3.2 km/h 99% 0 mm 29 W/m2
08:30 2.4 °C 2.3 °C 1011.7 hPa NNE 3.2 km/h 8 km/h 99% 0 mm 21 W/m2
08:40 2.5 °C 2.3 °C 1011.7 hPa North 4.8 km/h 11.3 km/h 99% 0 mm 30 W/m2
08:50 2.6 °C 2.4 °C 1011.7 hPa NNE 4.8 km/h 11.3 km/h 99% 0 mm 32 W/m2
09:00 2.6 °C 2.4 °C 1011.4 hPa North 1.6 km/h 9.7 km/h 99% 0 mm 22 W/m2
09:10 2.7 °C 2.6 °C 1011.1 hPa NNE 4.8 km/h 11.3 km/h 99% 0 mm 36 W/m2
09:20 2.8 °C 2.7 °C 1011.1 hPa NNE 8 km/h 12.9 km/h 99% 0 mm 37 W/m2
09:30 2.8 °C 2.7 °C 1011.1 hPa North 4.8 km/h 19.3 km/h 99% 0 mm 31 W/m2
09:40 2.8 °C 2.7 °C 1010.7 hPa North 1.6 km/h 12.9 km/h 99% 0 mm 36 W/m2
09:50 2.8 °C 2.7 °C 1010.7 hPa NNE 8 km/h 12.9 km/h 99% 0 mm 46 W/m2
10:00 2.8 °C 2.7 °C 1010.4 hPa NNE 8 km/h 16.1 km/h 99% 0 mm 33 W/m2
10:10 2.7 °C 2.6 °C 1010.4 hPa NNE 9.7 km/h 12.9 km/h 99% 0 mm 32 W/m2
10:20 2.7 °C 2.6 °C 1010.4 hPa North 9.7 km/h 16.1 km/h 99% 0.25 mm 29 W/m2
10:30 2.7 °C 2.6 °C 1010 hPa NNE 4.8 km/h 14.5 km/h 99% 0 mm 29 W/m2
10:40 2.7 °C 2.6 °C 1009.7 hPa NNE 4.8 km/h 14.5 km/h 99% 0 mm 35 W/m2
10:50 2.7 °C 2.6 °C 1009.4 hPa NNE 9.7 km/h 14.5 km/h 99% 0 mm 43 W/m2
11:00 2.7 °C 2.6 °C 1009 hPa NNE 3.2 km/h 11.3 km/h 99% 0 mm 48 W/m2
11:10 2.8 °C 2.7 °C 1008.7 hPa NNE 8 km/h 12.9 km/h 99% 0 mm 52 W/m2
11:20 2.8 °C 2.7 °C 1008.7 hPa NNE 1.6 km/h 12.9 km/h 99% 0 mm 33 W/m2
11:30 2.8 °C 2.7 °C 1008.7 hPa NNE 4.8 km/h 11.3 km/h 99% 0 mm 50 W/m2
11:40 2.9 °C 2.8 °C 1008.7 hPa North 8 km/h 16.1 km/h 99% 0 mm 58 W/m2
11:50 2.9 °C 2.8 °C 1008.7 hPa NNE 8 km/h 14.5 km/h 99% 0 mm 63 W/m2
12:00 2.9 °C 2.8 °C 1008.4 hPa NNE 3.2 km/h 16.1 km/h 99% 0 mm 43 W/m2
12:10 2.9 °C 2.8 °C 1008.4 hPa NNE 11.3 km/h 16.1 km/h 99% 0 mm 66 W/m2
12:20 2.9 °C 2.8 °C 1008.4 hPa NNE 11.3 km/h 20.9 km/h 99% 0 mm 86 W/m2
12:30 2.9 °C 2.8 °C 1008.4 hPa NNE 11.3 km/h 19.3 km/h 99% 0.25 mm 58 W/m2
12:40 2.8 °C 2.7 °C 1008 hPa NNE 8 km/h 19.3 km/h 99% 0.25 mm 44 W/m2
12:50 2.8 °C 2.7 °C 1008 hPa NNE 8 km/h 12.9 km/h 99% 0.25 mm 27 W/m2
13:00 2.7 °C 2.6 °C 1007.7 hPa NNE 9.7 km/h 16.1 km/h 99% 0 mm 23 W/m2
13:10 2.6 °C 2.4 °C 1007.7 hPa NNE 8 km/h 19.3 km/h 99% 0 mm 30 W/m2
13:20 2.5 °C 2.3 °C 1007.7 hPa NNE 11.3 km/h 20.9 km/h 99% 0 mm 34 W/m2
13:30 2.4 °C 2.3 °C 1007.3 hPa NNE 11.3 km/h 17.7 km/h 99% 0 mm 36 W/m2
13:40 2.4 °C 2.3 °C 1007.3 hPa NNE 8 km/h 20.9 km/h 99% 0 mm 38 W/m2
13:50 2.4 °C 2.3 °C 1007 hPa NNE 3.2 km/h 12.9 km/h 99% 0 mm 47 W/m2
14:00 2.4 °C 2.3 °C 1007 hPa NE 4.8 km/h 9.7 km/h 99% 0 mm 44 W/m2
14:10 2.5 °C 2.3 °C 1007.3 hPa North 3.2 km/h 14.5 km/h 99% 0 mm 27 W/m2
14:20 2.4 °C 2.3 °C 1007 hPa NNE 4.8 km/h 9.7 km/h 99% 0 mm 24 W/m2
14:30 2.4 °C 2.3 °C 1007.3 hPa NNE 8 km/h 14.5 km/h 99% 0 mm 16 W/m2
14:40 2.4 °C 2.2 °C 1007.3 hPa NNE 8 km/h 14.5 km/h 99% 0 mm 18 W/m2
14:50 2.3 °C 2.2 °C 1007.3 hPa NNE 8 km/h 12.9 km/h 99% 0 mm 11 W/m2
15:00 2.2 °C 2.1 °C 1007 hPa NNE 3.2 km/h 12.9 km/h 99% 0 mm 19 W/m2
15:10 2.2 °C 2.1 °C 1006.7 hPa NNE 4.8 km/h 12.9 km/h 99% 0 mm 27 W/m2
15:20 2.1 °C 1.9 °C 1006.7 hPa NNE 4.8 km/h 11.3 km/h 99% 0 mm 20 W/m2
15:30 2.1 °C 1.9 °C 1006.7 hPa North 3.2 km/h 16.1 km/h 99% 0 mm 11 W/m2
15:40 2 °C 1.8 °C 1006.7 hPa North 4.8 km/h 9.7 km/h 99% 0 mm 4 W/m2
15:50 2 °C 1.8 °C 1006.7 hPa North 8 km/h 12.9 km/h 99% 0 mm 2 W/m2
16:00 2 °C 1.8 °C 1006.3 hPa NNE 4.8 km/h 8 km/h 99% 0 mm 0 W/m2
16:10 2 °C 1.8 °C 1006.7 hPa NNE 3.2 km/h 11.3 km/h 99% 0 mm 0 W/m2
16:20 2 °C 1.8 °C 1006.7 hPa NNE 3.2 km/h 11.3 km/h 99% 0 mm 0 W/m2
16:30 2 °C 1.8 °C 1006.7 hPa NNE 3.2 km/h 8 km/h 99% 0 mm 0 W/m2
16:40 1.9 °C 1.8 °C 1006.7 hPa Calm   8 km/h 99% 0 mm 0 W/m2
16:50 1.9 °C 1.8 °C 1006.7 hPa NNE 3.2 km/h 9.7 km/h 99% 0 mm 0 W/m2
17:00 1.9 °C 1.8 °C 1006.7 hPa Calm   8 km/h 99% 0 mm 0 W/m2
17:10 1.9 °C 1.8 °C 1006.7 hPa North 4.8 km/h 14.5 km/h 99% 0 mm 0 W/m2
17:20 1.9 °C 1.8 °C 1007 hPa North 1.6 km/h 11.3 km/h 99% 0 mm 0 W/m2
17:30 1.9 °C 1.8 °C 1006.7 hPa North 3.2 km/h 8 km/h 99% 0 mm 0 W/m2
17:40 1.9 °C 1.8 °C 1006.7 hPa North 1.6 km/h 6.4 km/h 99% 0 mm 0 W/m2
17:50 1.9 °C 1.8 °C 1006.7 hPa Calm   8 km/h 99% 0 mm 0 W/m2
18:00 1.9 °C 1.8 °C 1006.7 hPa NNE 3.2 km/h 8 km/h 99% 0 mm 0 W/m2
18:10 1.9 °C 1.8 °C 1006.7 hPa ESE 3.2 km/h 8 km/h 99% 0 mm 0 W/m2
18:20 1.9 °C 1.8 °C 1006.7 hPa NNE 1.6 km/h 4.8 km/h 99% 0 mm 0 W/m2
18:30 2 °C 1.8 °C 1006.7 hPa NNE 3.2 km/h 4.8 km/h 99% 0 mm 0 W/m2
18:40 2 °C 1.8 °C 1006.7 hPa NNE 4.8 km/h 6.4 km/h 99% 0 mm 0 W/m2
18:50 1.9 °C 1.8 °C 1006.7 hPa North 1.6 km/h 4.8 km/h 99% 0 mm 0 W/m2
19:00 1.9 °C 1.8 °C 1006.7 hPa Calm   3.2 km/h 99% 0 mm 0 W/m2
19:10 1.9 °C 1.8 °C 1006.7 hPa North 1.6 km/h 4.8 km/h 99% 0 mm 0 W/m2
19:20 1.9 °C 1.8 °C 1006.7 hPa North 3.2 km/h 8 km/h 99% 0 mm 0 W/m2
19:30 1.9 °C 1.8 °C 1006.7 hPa NNE 3.2 km/h 9.7 km/h 99% 0 mm 0 W/m2
19:40 1.9 °C 1.8 °C 1006.3 hPa Calm   11.3 km/h 99% 0 mm 0 W/m2
19:50 1.9 °C 1.8 °C 1006.7 hPa NNE 3.2 km/h 9.7 km/h 99% 0 mm 0 W/m2
20:00 1.9 °C 1.8 °C 1006.3 hPa NNE 3.2 km/h 8 km/h 99% 0 mm 0 W/m2
20:10 1.9 °C 1.8 °C 1006.3 hPa NNE 3.2 km/h 9.7 km/h 99% 0 mm 0 W/m2
20:20 1.9 °C 1.8 °C 1006.7 hPa North 3.2 km/h 9.7 km/h 99% 0 mm 0 W/m2
20:30 1.8 °C 1.7 °C 1006.7 hPa NNE 3.2 km/h 9.7 km/h 99% 0 mm 0 W/m2
20:40 1.8 °C 1.7 °C 1006.7 hPa NNE 3.2 km/h 8 km/h 99% 0 mm 0 W/m2
20:50 1.8 °C 1.7 °C 1006.7 hPa North 3.2 km/h 8 km/h 99% 0 mm 0 W/m2
21:00 1.8 °C 1.7 °C 1006.7 hPa Calm   6.4 km/h 99% 0 mm 0 W/m2
21:10 1.8 °C 1.7 °C 1006.7 hPa NNE 1.6 km/h 6.4 km/h 99% 0 mm 0 W/m2
21:20 1.8 °C 1.7 °C 1006.7 hPa NE 1.6 km/h 8 km/h 99% 0 mm 0 W/m2
21:30 1.7 °C 1.6 °C 1006.7 hPa NE 3.2 km/h 8 km/h 99% 0 mm 0 W/m2
21:40 1.7 °C 1.6 °C 1006.7 hPa NNE 3.2 km/h 4.8 km/h 99% 0 mm 0 W/m2
21:50 1.7 °C 1.6 °C 1006.7 hPa North 3.2 km/h 6.4 km/h 99% 0 mm 0 W/m2
22:00 1.7 °C 1.6 °C 1006.7 hPa NNE 1.6 km/h 8 km/h 99% 0 mm 0 W/m2
22:10 1.7 °C 1.6 °C 1006.7 hPa NNE 3.2 km/h 8 km/h 99% 0 mm 0 W/m2
22:20 1.7 °C 1.6 °C 1006.7 hPa NNE 3.2 km/h 11.3 km/h 99% 0 mm 0 W/m2
22:30 1.7 °C 1.6 °C 1006.7 hPa North 3.2 km/h 12.9 km/h 99% 0 mm 0 W/m2
22:40 1.7 °C 1.6 °C 1006.7 hPa WNW 3.2 km/h 6.4 km/h 99% 0 mm 0 W/m2
22:50 1.7 °C 1.6 °C 1002.9 hPa SW 3.2 km/h 8 km/h 99% 0 mm 0 W/m2
23:00 1.7 °C 1.6 °C 1002.9 hPa SW 4.8 km/h 8 km/h 99% 0 mm 0 W/m2
23:10 1.8 °C 1.7 °C 1002.9 hPa WSW 3.2 km/h 9.7 km/h 99% 0 mm 0 W/m2
23:20 1.8 °C 1.7 °C 1002.9 hPa West 1.6 km/h 6.4 km/h 99% 0 mm 0 W/m2
23:30 1.9 °C 1.7 °C 1002.9 hPa SW 1.6 km/h 4.8 km/h 99% 0 mm 0 W/m2
23:40 1.9 °C 1.8 °C 1002.9 hPa SSW 3.2 km/h 8 km/h 99% 0 mm 0 W/m2
23:50 2 °C 1.8 °C 1002.6 hPa ESE 1.6 km/h 8 km/h 99% 0 mm 0 W/m2
Knjazevac, Serbia
Compliments of Weather Underground - 2 mb